Time;durP1;ratioP1;P1;durP2;ratioP2;P2;SDS_P1;SDS_P2;PMS_P1;PMS_P2;Temp;Humidity;BMP_temperature;BMP_pressure;BME280_temperature;BME280_humidity;BME280_pressure;Samples;Min_cycle;Max_cycle;Signal;HPM_P1;HPM_P2
2022/12/21 00:00:13;;;;;;;29.58;12.88;;;;;;;6.51;95.02;100696.94;4935704;29;20220;-74
2022/12/21 00:02:43;;;;;;;20.92;13.70;;;;;;;6.58;95.62;100696.22;4920012;29;20299;-73
2022/12/21 00:05:13;;;;;;;21.10;12.35;;;;;;;6.62;94.75;100697.53;4937967;29;20203;-72
2022/12/21 00:07:42;;;;;;;19.40;11.70;;;;;;;6.34;95.69;100690.00;4942116;29;20196;-74
2022/12/21 00:10:11;;;;;;;21.33;12.35;;;;;;;6.32;95.77;100685.84;4937106;29;20223;-72
2022/12/21 00:12:41;;;;;;;24.50;13.95;;;;;;;6.27;96.41;100683.69;4937628;29;20204;-72
2022/12/21 00:15:11;;;;;;;21.98;15.52;;;;;;;6.26;97.19;100687.38;4937201;29;20209;-72
2022/12/21 00:17:41;;;;;;;21.33;12.55;;;;;;;6.29;97.33;100687.06;4946200;29;20204;-73
2022/12/21 00:20:14;;;;;;;17.30;12.05;;;;;;;6.19;97.72;100686.44;4925653;29;20225;-73
2022/12/21 00:22:43;;;;;;;21.40;13.13;;;;;;;6.21;98.74;100679.03;4936299;29;20251;-73
2022/12/21 00:25:12;;;;;;;22.80;13.40;;;;;;;6.25;98.70;100669.59;4946806;29;20260;-73
2022/12/21 00:27:42;;;;;;;25.13;13.40;;;;;;;6.26;98.55;100673.13;4952055;29;20200;-72
2022/12/21 00:30:13;;;;;;;24.63;13.90;;;;;;;6.27;98.06;100669.41;4949675;29;20236;-72
2022/12/21 00:32:43;;;;;;;27.38;14.32;;;;;;;6.22;97.62;100664.59;4940888;29;20205;-73
2022/12/21 00:35:12;;;;;;;21.58;13.57;;;;;;;6.10;98.61;100656.09;4934859;29;20196;-73
2022/12/21 00:37:41;;;;;;;32.35;14.55;;;;;;;6.24;98.30;100664.41;4941355;29;20193;-71
2022/12/21 00:40:11;;;;;;;29.90;13.90;;;;;;;6.17;98.14;100655.38;4941617;29;20228;-72
2022/12/21 00:42:41;;;;;;;28.63;15.73;;;;;;;6.17;98.72;100658.91;4959087;29;20723;-72
2022/12/21 00:45:12;;;;;;;19.80;14.27;;;;;;;6.19;98.90;100656.91;4931239;29;20456;-72
2022/12/21 00:47:42;;;;;;;19.88;13.32;;;;;;;6.05;98.99;100654.97;4936720;29;20682;-72
2022/12/21 00:50:11;;;;;;;29.02;15.77;;;;;;;6.07;99.00;100652.94;4919560;29;20702;-72
2022/12/21 00:52:40;;;;;;;25.90;12.60;;;;;;;6.08;99.05;100658.13;4935877;29;20193;-72
2022/12/21 00:55:10;;;;;;;21.13;13.02;;;;;;;6.06;99.60;100651.25;4925166;29;20196;-71
2022/12/21 00:57:39;;;;;;;22.88;14.20;;;;;;;6.14;99.44;100653.91;4941010;29;20189;-71
2022/12/21 01:00:10;;;;;;;25.88;13.77;;;;;;;6.12;98.87;100645.19;4918460;29;20225;-74
2022/12/21 01:02:40;;;;;;;18.30;10.90;;;;;;;6.10;99.17;100639.97;4936125;29;20219;-72
2022/12/21 01:05:10;;;;;;;24.60;13.00;;;;;;;6.23;98.91;100650.13;4928398;29;20638;-72
2022/12/21 01:07:39;;;;;;;21.98;13.90;;;;;;;6.27;98.21;100646.06;4936629;29;20229;-71
2022/12/21 01:10:09;;;;;;;22.17;13.65;;;;;;;6.16;98.35;100643.78;4934733;29;20231;-71
2022/12/21 01:12:39;;;;;;;24.92;14.32;;;;;;;6.36;97.65;100649.53;4946158;29;20185;-73
2022/12/21 01:15:09;;;;;;;25.55;12.55;;;;;;;6.28;97.49;100653.13;4923075;29;20215;-73
2022/12/21 01:17:40;;;;;;;23.17;14.13;;;;;;;6.22;97.57;100648.47;4938794;29;20326;-72
2022/12/21 01:20:10;;;;;;;25.63;14.55;;;;;;;6.14;98.46;100653.91;4932350;29;20312;-73
2022/12/21 01:22:40;;;;;;;25.65;12.07;;;;;;;6.26;98.23;100654.31;4938864;29;20208;-73
2022/12/21 01:25:09;;;;;;;29.52;14.15;;;;;;;6.19;98.62;100643.47;4940274;29;20607;-73
2022/12/21 01:27:39;;;;;;;23.30;14.75;;;;;;;6.36;98.33;100642.28;4954500;29;20248;-73
2022/12/21 01:30:09;;;;;;;23.33;14.05;;;;;;;6.35;98.00;100637.94;4951497;29;20332;-74
2022/12/21 01:32:40;;;;;;;21.80;12.23;;;;;;;6.34;97.52;100643.50;4956321;29;20193;-73
2022/12/21 01:35:09;;;;;;;24.23;13.50;;;;;;;6.32;97.60;100632.94;4956866;29;20181;-74
2022/12/21 01:37:39;;;;;;;26.50;12.65;;;;;;;6.33;97.99;100639.16;4962737;29;20265;-74
2022/12/21 01:40:10;;;;;;;27.40;12.85;;;;;;;6.21;98.49;100630.66;4964806;28;20209;-73
2022/12/21 01:42:39;;;;;;;22.23;12.45;;;;;;;6.33;99.04;100623.84;4956854;29;20228;-74
2022/12/21 01:45:20;;;;;;;20.25;13.27;;;;;;;6.25;98.86;100626.59;4942139;29;20248;-75
2022/12/21 01:47:55;;;;;;;26.50;13.43;;;;;;;6.35;99.35;100627.19;4958450;29;20195;-72
2022/12/21 01:50:39;;;;;;;26.65;16.35;;;;;;;6.30;98.83;100626.88;4942802;29;20295;-72
2022/12/21 01:53:13;;;;;;;24.98;11.95;;;;;;;6.33;99.53;100617.66;4946276;29;20275;-73
2022/12/21 01:55:44;;;;;;;29.20;14.70;;;;;;;6.28;99.51;100622.72;4954334;29;20204;-73
2022/12/21 01:58:14;;;;;;;21.30;13.32;;;;;;;6.34;99.64;100624.69;4943647;29;20269;-72
2022/12/21 02:00:43;;;;;;;27.65;14.25;;;;;;;6.30;99.82;100621.50;4944469;29;20216;-75
2022/12/21 02:03:21;;;;;;;23.67;13.43;;;;;;;6.33;100.00;100628.41;4955301;29;20640;-73
2022/12/21 02:05:55;;;;;;;23.95;12.52;;;;;;;6.25;100.00;100621.22;4949895;29;20255;-72
2022/12/21 02:08:29;;;;;;;22.95;12.85;;;;;;;6.20;100.00;100620.94;4951246;29;20205;-72
2022/12/21 02:11:00;;;;;;;28.20;13.90;;;;;;;6.16;100.00;100616.94;4951389;29;20224;-73
2022/12/21 02:13:29;;;;;;;22.67;13.20;;;;;;;6.20;100.00;100626.28;4936628;29;20280;-72
2022/12/21 02:16:17;;;;;;;24.20;14.57;;;;;;;6.24;100.00;100618.72;4959601;29;20193;-72
2022/12/21 02:19:27;;;;;;;26.92;14.90;;;;;;;6.17;100.00;100628.50;4952276;29;20204;-73
2022/12/21 02:22:01;;;;;;;20.92;13.68;;;;;;;6.17;100.00;100610.53;4932970;29;20202;-72
2022/12/21 02:25:16;;;;;;;25.27;13.07;;;;;;;6.23;100.00;100622.44;4945560;29;20233;-73
2022/12/21 02:28:21;;;;;;;22.08;13.27;;;;;;;6.21;100.00;100616.38;4916672;29;20293;-74
2022/12/21 02:31:10;;;;;;;27.35;14.50;;;;;;;6.17;100.00;100613.22;4923931;28;20239;-72
2022/12/21 02:33:51;;;;;;;28.38;13.98;;;;;;;6.09;100.00;100610.63;4940367;29;20181;-74
2022/12/21 02:36:33;;;;;;;20.83;12.45;;;;;;;6.12;100.00;100615.63;4937901;29;20614;-72
2022/12/21 02:39:12;;;;;;;21.23;15.00;;;;;;;6.14;100.00;100613.59;4925758;29;20223;-72
2022/12/21 02:41:54;;;;;;;24.15;13.55;;;;;;;6.14;100.00;100610.09;4933350;29;20716;-73
2022/12/21 02:44:34;;;;;;;21.88;13.52;;;;;;;6.11;100.00;100600.50;4950146;29;20220;-71
2022/12/21 02:47:12;;;;;;;32.13;15.88;;;;;;;5.98;100.00;100603.81;4937111;29;20184;-71
2022/12/21 02:49:51;;;;;;;29.83;15.65;;;;;;;6.15;100.00;100603.69;4940213;29;20591;-73
2022/12/21 02:52:27;;;;;;;30.05;15.82;;;;;;;6.14;100.00;100608.22;4944825;29;20196;-73
2022/12/21 02:54:59;;;;;;;25.05;14.55;;;;;;;6.01;100.00;100603.44;4919952;29;20204;-73
2022/12/21 02:57:35;;;;;;;24.00;13.98;;;;;;;6.00;100.00;100599.09;4916927;29;20201;-72
2022/12/21 03:00:08;;;;;;;23.35;13.80;;;;;;;5.95;100.00;100593.44;4931698;29;20227;-72
2022/12/21 03:03:47;;;;;;;28.52;14.32;;;;;;;5.98;100.00;100589.53;4920251;29;20307;-72
2022/12/21 03:06:07;;;;;;;25.83;13.88;;;;;;;5.97;100.00;100588.72;4923860;29;20255;-72
2022/12/21 03:08:49;;;;;;;22.58;14.07;;;;;;;6.01;100.00;100586.50;4932104;29;20297;-73
2022/12/21 03:11:18;;;;;;;25.13;15.07;;;;;;;6.05;100.00;100588.63;4919759;29;20744;-72
2022/12/21 03:13:56;;;;;;;29.02;16.20;;;;;;;6.07;100.00;100591.16;4935350;29;20662;-73
2022/12/21 03:16:34;;;;;;;26.73;16.83;;;;;;;6.00;100.00;100590.22;4919840;29;20252;-72
2022/12/21 03:19:12;;;;;;;26.05;14.20;;;;;;;5.96;100.00;100588.88;4935795;28;20553;-72
2022/12/21 03:21:46;;;;;;;27.23;14.70;;;;;;;5.97;100.00;100588.72;4939404;29;20208;-71
2022/12/21 03:24:20;;;;;;;23.90;13.38;;;;;;;5.96;100.00;100588.88;4942074;29;20192;-71
2022/12/21 03:26:54;;;;;;;31.58;15.90;;;;;;;5.99;100.00;100594.75;4940803;29;20664;-74
2022/12/21 03:32:34;;;;;;;24.38;14.82;;;;;;;5.93;100.00;100590.09;4841304;29;20280;-73
2022/12/21 03:35:11;;;;;;;31.00;14.23;;;;;;;5.86;100.00;100582.88;4843529;29;20379;-74
2022/12/21 03:37:43;;;;;;;32.95;15.02;;;;;;;5.97;100.00;100579.81;4858374;29;20231;-72
2022/12/21 03:40:17;;;;;;;25.98;14.75;;;;;;;5.89;100.00;100577.19;4851585;29;20249;-73
2022/12/21 03:42:52;;;;;;;29.92;14.35;;;;;;;5.79;100.00;100576.56;4843272;29;20216;-72
2022/12/21 03:45:27;;;;;;;31.75;15.77;;;;;;;5.90;100.00;100578.88;4843714;29;20554;-73
2022/12/21 03:48:03;;;;;;;29.60;15.02;;;;;;;5.92;100.00;100571.47;4843223;29;20233;-72
2022/12/21 03:50:40;;;;;;;35.20;17.00;;;;;;;5.86;100.00;100582.88;4843205;29;20590;-72
2022/12/21 03:53:20;;;;;;;22.02;14.00;;;;;;;5.92;100.00;100576.84;4843105;29;20185;-73
2022/12/21 03:55:51;;;;;;;29.50;17.77;;;;;;;5.90;100.00;100578.88;4843107;29;20661;-73
2022/12/21 03:58:21;;;;;;;24.27;14.40;;;;;;;5.94;100.00;100574.81;4842593;29;20229;-73
2022/12/21 04:00:57;;;;;;;25.42;14.70;;;;;;;5.82;100.00;100570.81;4843158;29;20662;-73
2022/12/21 04:03:30;;;;;;;28.40;16.85;;;;;;;5.86;100.00;100564.91;4843061;29;20204;-73
2022/12/21 04:06:06;;;;;;;30.50;15.10;;;;;;;5.88;100.00;100567.47;4842939;29;20676;-72
2022/12/21 04:08:36;;;;;;;31.23;15.70;;;;;;;5.93;100.00;100565.09;4843545;29;20195;-72
2022/12/21 04:11:06;;;;;;;33.45;15.73;;;;;;;5.91;100.00;100567.94;4842823;29;20235;-73
2022/12/21 04:13:34;;;;;;;31.27;15.75;;;;;;;5.89;100.00;100571.81;4824392;29;20203;-71
2022/12/21 04:16:06;;;;;;;25.90;13.27;;;;;;;5.92;100.00;100571.47;4847326;29;20195;-74
2022/12/21 04:21:23;;;;;;;24.45;14.55;;;;;;;5.84;100.00;100568.81;4843477;29;20765;-72
2022/12/21 04:29:25;;;;;;;31.15;16.00;;;;;;;5.75;100.00;100559.16;4843280;29;20204;-73
2022/12/21 04:31:54;;;;;;;32.70;15.93;;;;;;;5.76;100.00;100558.16;4844239;29;20306;-73
2022/12/21 04:34:31;;;;;;;33.00;15.20;;;;;;;5.74;100.00;100552.09;4843808;29;20292;-73
2022/12/21 04:39:48;;;;;;;30.27;16.80;;;;;;;5.85;100.00;100551.69;4847313;29;20219;-72
2022/12/21 04:42:17;;;;;;;30.10;18.17;;;;;;;5.86;100.00;100558.72;4842449;29;20218;-73
2022/12/21 04:44:47;;;;;;;33.00;17.38;;;;;;;5.95;100.00;100550.47;4842121;29;20199;-71
2022/12/21 04:47:16;;;;;;;31.95;15.13;;;;;;;5.84;100.00;100550.03;4842500;29;20207;-73
2022/12/21 04:49:45;;;;;;;27.38;16.13;;;;;;;5.91;100.00;100553.66;4845410;29;20733;-71
2022/12/21 04:52:15;;;;;;;35.40;17.42;;;;;;;5.87;100.00;100553.19;4846621;29;20223;-73
2022/12/21 04:54:45;;;;;;;26.48;15.45;;;;;;;5.84;100.00;100544.66;4830280;29;20588;-73
2022/12/21 04:57:14;;;;;;;33.42;17.60;;;;;;;5.83;100.00;100540.28;4846165;29;20207;-72
2022/12/21 04:59:44;;;;;;;26.27;13.48;;;;;;;5.80;100.00;100546.03;4845908;29;20192;-71
2022/12/21 05:02:13;;;;;;;25.30;15.07;;;;;;;5.84;100.00;100548.16;4849910;29;20230;-72
2022/12/21 05:04:43;;;;;;;33.55;17.50;;;;;;;5.97;100.00;100544.91;4851939;29;20204;-72
2022/12/21 05:07:12;;;;;;;26.90;15.63;;;;;;;5.93;100.00;100547.13;4865365;29;20298;-73
2022/12/21 05:09:42;;;;;;;33.65;16.83;;;;;;;5.88;100.00;100540.63;4848693;29;20257;-73
2022/12/21 05:12:16;;;;;;;24.23;15.48;;;;;;;5.87;100.00;100549.69;4852281;29;20546;-73
2022/12/21 05:14:45;;;;;;;31.25;17.20;;;;;;;5.94;100.00;100545.28;4854906;29;20192;-73
2022/12/21 05:17:14;;;;;;;28.95;17.42;;;;;;;5.89;100.00;100550.34;4848888;29;20204;-73
2022/12/21 05:19:46;;;;;;;32.45;15.40;;;;;;;5.89;100.00;100553.88;4844794;29;20700;-73
2022/12/21 05:22:16;;;;;;;31.08;18.48;;;;;;;5.94;100.00;100542.59;4840639;29;20210;-73
2022/12/21 05:24:47;;;;;;;34.17;15.13;;;;;;;5.94;100.00;100545.28;4857475;29;20197;-71
2022/12/21 05:27:16;;;;;;;30.52;15.50;;;;;;;5.95;100.00;100545.09;4848085;29;20294;-72
2022/12/21 05:29:45;;;;;;;27.50;15.82;;;;;;;5.94;100.00;100545.28;4848023;29;20211;-73
2022/12/21 05:32:14;;;;;;;26.70;16.20;;;;;;;5.92;100.00;100539.22;4846877;29;20570;-73
2022/12/21 05:34:44;;;;;;;28.67;15.57;;;;;;;5.89;100.00;100551.19;4846070;29;20567;-73
2022/12/21 05:37:13;;;;;;;35.50;17.30;;;;;;;5.98;100.00;100535.84;4845453;29;20196;-74
2022/12/21 05:39:42;;;;;;;30.58;19.17;;;;;;;6.00;100.00;100539.19;4845826;29;20196;-73
2022/12/21 05:42:13;;;;;;;31.52;18.13;;;;;;;5.99;100.00;100542.88;4845470;29;20192;-74
2022/12/21 05:44:42;;;;;;;22.73;14.27;;;;;;;6.02;100.00;100545.19;4845475;29;20673;-74
2022/12/21 05:47:11;;;;;;;30.98;16.90;;;;;;;6.08;100.00;100547.16;4863585;29;20282;-73
2022/12/21 05:49:40;;;;;;;29.30;16.77;;;;;;;6.13;100.00;100552.00;4861119;29;20287;-73
2022/12/21 05:52:09;;;;;;;42.50;21.45;;;;;;;6.20;100.00;100558.28;4856860;29;20192;-73
2022/12/21 05:54:38;;;;;;;30.58;14.98;;;;;;;6.09;100.00;100554.22;4852159;29;20203;-72
2022/12/21 05:57:07;;;;;;;27.48;16.27;;;;;;;6.06;100.00;100549.19;4850001;29;20204;-73
2022/12/21 05:59:38;;;;;;;38.33;19.17;;;;;;;6.06;100.00;100546.50;4844164;29;20711;-72
2022/12/21 06:02:07;;;;;;;31.08;18.30;;;;;;;6.14;100.00;100557.19;4837298;29;20254;-73
2022/12/21 06:04:36;;;;;;;47.28;20.05;;;;;;;6.20;100.00;100552.91;4844182;29;20215;-73
2022/12/21 06:07:05;;;;;;;28.65;17.35;;;;;;;6.15;100.00;100545.41;4862827;29;20725;-73
2022/12/21 06:09:34;;;;;;;35.75;18.95;;;;;;;6.30;100.00;100550.81;4862836;29;20195;-72
2022/12/21 06:12:04;;;;;;;27.40;16.30;;;;;;;6.41;100.00;100551.19;4862677;29;20195;-73
2022/12/21 06:14:33;;;;;;;39.50;18.90;;;;;;;6.32;100.00;100557.69;4862341;29;20199;-73
2022/12/21 06:17:03;;;;;;;33.95;17.77;;;;;;;6.32;100.00;100552.31;4855696;29;20255;-73
2022/12/21 06:19:33;;;;;;;36.78;17.77;;;;;;;6.40;100.00;100554.91;4848130;29;20603;-71
2022/12/21 06:22:02;;;;;;;29.73;15.55;;;;;;;6.38;100.00;100556.97;4843380;29;20215;-73
2022/12/21 06:24:31;;;;;;;33.35;15.98;;;;;;;6.52;100.00;100553.44;4844218;29;20238;-73
2022/12/21 06:27:00;;;;;;;28.70;16.40;;;;;;;6.53;100.00;100554.28;4848015;29;20196;-73
2022/12/21 06:29:29;;;;;;;30.67;17.75;;;;;;;6.54;100.00;100548.72;4844260;29;20200;-73
2022/12/21 06:31:59;;;;;;;35.22;20.30;;;;;;;6.42;100.00;100552.03;4844259;29;20658;-72
2022/12/21 06:34:29;;;;;;;34.17;17.48;;;;;;;6.67;100.00;100560.69;4842813;29;20208;-73
2022/12/21 06:37:27;;;;;;;29.25;17.30;;;;;;;6.67;100.00;100553.47;4844349;29;20192;-73
2022/12/21 06:39:56;;;;;;;35.22;20.35;;;;;;;6.62;100.00;100555.03;4843858;29;20244;-73
2022/12/21 06:42:25;;;;;;;30.83;16.67;;;;;;;6.79;100.00;100561.88;4844071;29;20670;-73
2022/12/21 06:44:54;;;;;;;39.20;19.35;;;;;;;6.65;100.00;100560.03;4843689;29;20215;-73
2022/12/21 06:47:23;;;;;;;31.77;19.10;;;;;;;6.67;100.00;100558.84;4843974;29;20188;-71
2022/12/21 06:49:54;;;;;;;33.17;19.50;;;;;;;6.72;100.00;100563.66;4844741;29;20227;-72
2022/12/21 06:52:23;;;;;;;35.83;18.00;;;;;;;6.72;100.00;100563.66;4844399;29;20630;-72
2022/12/21 06:54:52;;;;;;;27.90;16.52;;;;;;;6.65;100.00;100560.88;4843755;29;20196;-73
2022/12/21 06:57:21;;;;;;;27.30;15.25;;;;;;;6.66;100.00;100550.94;4843610;29;20232;-73
2022/12/21 06:59:53;;;;;;;35.42;18.35;;;;;;;6.71;100.00;100559.28;4843459;29;20737;-73
2022/12/21 07:02:22;;;;;;;33.42;18.48;;;;;;;6.82;100.00;100564.22;4843557;29;20211;-72
2022/12/21 07:04:52;;;;;;;31.15;17.20;;;;;;;6.78;100.00;100565.59;4843406;29;20240;-72
2022/12/21 07:07:23;;;;;;;31.00;17.02;;;;;;;6.72;100.00;100560.97;4843878;29;20206;-72
2022/12/21 07:09:52;;;;;;;37.15;19.45;;;;;;;6.76;100.00;100560.41;4843860;29;20273;-74
2022/12/21 07:12:21;;;;;;;26.85;16.73;;;;;;;6.75;100.00;100553.34;4843124;29;20231;-73
2022/12/21 07:14:50;;;;;;;37.10;19.77;;;;;;;6.71;100.00;100557.44;4843464;29;20638;-71
2022/12/21 07:17:19;;;;;;;32.70;16.95;;;;;;;6.78;100.00;100562.91;4843920;29;20710;-72
2022/12/21 07:19:50;;;;;;;24.48;15.13;;;;;;;6.74;100.00;100558.91;4845389;29;20283;-72
2022/12/21 07:22:19;;;;;;;25.25;18.98;;;;;;;6.82;100.00;100558.84;4843169;29;20249;-70
2022/12/21 07:24:50;;;;;;;28.38;18.00;;;;;;;6.82;100.00;100559.69;4843624;29;20749;-72
2022/12/21 07:27:19;;;;;;;27.20;16.73;;;;;;;6.65;100.00;100555.47;4861343;29;20239;-72
2022/12/21 07:29:48;;;;;;;32.85;17.98;;;;;;;6.73;100.00;100562.66;4845934;29;20226;-71
2022/12/21 07:32:18;;;;;;;29.75;17.15;;;;;;;6.81;100.00;100562.53;4844812;29;20203;-72
2022/12/21 07:34:47;;;;;;;26.60;18.58;;;;;;;6.86;100.00;100573.59;4855689;29;20188;-74
2022/12/21 07:37:16;;;;;;;38.90;19.58;;;;;;;6.97;100.00;100573.94;4848357;29;20195;-73
2022/12/21 07:39:45;;;;;;;38.65;20.55;;;;;;;6.96;100.00;100574.13;4843511;29;20196;-72
2022/12/21 07:42:16;;;;;;;31.73;19.48;;;;;;;6.89;100.00;100570.50;4842634;29;20188;-73
2022/12/21 07:45:00;;;;;;;33.72;19.10;;;;;;;7.07;100.00;100562.88;4841802;29;20633;-73
2022/12/21 07:47:38;;;;;;;34.95;18.38;;;;;;;6.97;100.00;100557.78;4844616;29;20208;-72
2022/12/21 07:50:09;;;;;;;33.72;19.05;;;;;;;7.07;100.00;100562.06;4842959;29;20306;-73
2022/12/21 07:52:38;;;;;;;27.75;15.43;;;;;;;6.98;100.00;100564.00;4842225;29;20252;-72
2022/12/21 07:55:08;;;;;;;32.78;18.23;;;;;;;7.05;100.00;100562.25;4843422;29;20227;-73
2022/12/21 07:57:38;;;;;;;31.40;19.85;;;;;;;7.13;100.00;100567.53;4842748;29;20287;-72
2022/12/21 08:00:10;;;;;;;34.33;20.35;;;;;;;7.16;100.00;100572.53;4843371;29;20222;-72
2022/12/21 08:02:42;;;;;;;27.30;17.98;;;;;;;7.08;100.00;100575.31;4843488;29;20251;-73
2022/12/21 08:05:11;;;;;;;27.27;18.17;;;;;;;7.24;100.00;100579.66;4843526;29;20207;-72
2022/12/21 08:07:40;;;;;;;25.73;18.08;;;;;;;7.22;100.00;100592.47;4848515;29;20594;-73
2022/12/21 08:10:10;;;;;;;29.88;17.80;;;;;;;7.12;100.00;100591.91;4843479;29;20223;-72
2022/12/21 08:12:41;;;;;;;28.58;16.27;;;;;;;7.15;100.00;100592.41;4858015;29;20278;-72
2022/12/21 08:15:11;;;;;;;38.85;20.80;;;;;;;7.22;100.00;100593.31;4856352;29;20187;-72
2022/12/21 08:17:41;;;;;;;28.50;17.45;;;;;;;7.13;100.00;100605.19;4860698;29;20179;-72
2022/12/21 08:20:11;;;;;;;34.42;16.98;;;;;;;7.41;100.00;100592.72;4851570;29;20237;-71
2022/12/21 08:22:40;;;;;;;36.33;19.35;;;;;;;7.35;100.00;100589.97;4842466;29;20236;-72
2022/12/21 08:25:10;;;;;;;33.72;19.35;;;;;;;7.33;100.00;100584.75;4849138;29;20709;-72
2022/12/21 08:27:41;;;;;;;34.63;19.02;;;;;;;7.63;100.00;100590.06;4851649;29;20203;-73
2022/12/21 08:30:11;;;;;;;34.13;20.25;;;;;;;7.73;100.00;100602.22;4845584;29;20231;-73
2022/12/21 08:32:40;;;;;;;30.38;19.15;;;;;;;7.68;100.00;100598.41;4850535;29;20642;-73
2022/12/21 08:35:10;;;;;;;26.73;18.50;;;;;;;7.54;100.00;100604.66;4853515;29;20204;-73
2022/12/21 08:37:39;;;;;;;30.50;18.05;;;;;;;7.52;100.00;100604.84;4855299;29;20192;-73
2022/12/21 08:40:10;;;;;;;31.05;18.75;;;;;;;7.40;100.00;100601.84;4849330;29;20223;-74
2022/12/21 08:42:40;;;;;;;29.20;17.98;;;;;;;7.49;100.00;100601.72;4855779;29;20211;-72
2022/12/21 08:45:10;;;;;;;35.58;18.20;;;;;;;7.38;100.00;100598.47;4845916;29;20267;-71
2022/12/21 08:47:39;;;;;;;30.60;19.45;;;;;;;7.43;100.00;100598.75;4855004;29;20244;-73
2022/12/21 08:55:27;;;;;;;29.25;17.52;;;;;;;7.73;100.00;100594.13;4852747;29;20198;-73
2022/12/21 08:57:57;;;;;;;30.38;17.15;;;;;;;7.58;100.00;100598.72;4833494;29;20287;-71
2022/12/21 09:00:27;;;;;;;33.80;16.95;;;;;;;7.67;100.00;100597.56;4845355;29;20216;-73
2022/12/21 09:02:57;;;;;;;33.97;18.10;;;;;;;7.60;100.00;100593.97;4844434;29;20192;-72
2022/12/21 09:05:26;;;;;;;26.90;17.77;;;;;;;7.71;100.00;100592.63;4838663;29;20295;-72
2022/12/21 09:08:32;;;;;;;26.63;15.75;;;;;;;7.77;100.00;100597.25;4841792;29;20207;-70
2022/12/21 09:11:02;;;;;;;27.15;18.20;;;;;;;7.78;100.00;100612.41;4853731;29;20230;-72
2022/12/21 09:13:33;;;;;;;28.33;17.95;;;;;;;7.91;100.00;100593.69;4847240;29;20207;-72
2022/12/21 09:16:03;;;;;;;27.38;18.42;;;;;;;7.84;100.00;100593.59;4843947;29;20227;-72
2022/12/21 09:18:32;;;;;;;32.60;18.73;;;;;;;7.89;100.00;100595.72;4844328;29;20287;-71
2022/12/21 09:21:02;;;;;;;26.98;17.40;;;;;;;7.78;100.00;100590.84;4843348;29;20318;-71
2022/12/21 09:27:29;;;;;;;26.60;16.38;;;;;;;7.70;100.00;100590.94;4847701;29;20717;-72
2022/12/21 09:30:00;;;;;;;29.83;18.02;;;;;;;7.75;100.00;100593.91;4841200;29;20220;-72
2022/12/21 09:32:29;;;;;;;28.90;16.63;;;;;;;7.74;100.00;100592.28;4953551;23;20236;-74
2022/12/21 09:35:00;;;;;;;33.28;18.60;;;;;;;7.81;100.00;100596.69;4901788;29;20582;-71
2022/12/21 09:37:30;;;;;;;26.88;19.20;;;;;;;7.84;100.00;100595.47;4908964;29;20194;-74
2022/12/21 09:40:11;;;;;;;26.27;16.65;;;;;;;7.85;100.00;100597.97;4903778;29;20225;-73
2022/12/21 09:42:52;;;;;;;26.50;15.85;;;;;;;7.82;100.00;100601.06;4916338;29;20216;-73
2022/12/21 09:45:46;;;;;;;25.45;17.85;;;;;;;7.97;100.00;100592.91;4922920;29;20296;-72
2022/12/21 09:48:19;;;;;;;26.42;16.50;;;;;;;8.00;100.00;100603.28;4925728;29;20197;-71
2022/12/21 09:50:59;;;;;;;29.17;17.50;;;;;;;7.96;100.00;100596.63;4923413;29;20265;-73
2022/12/21 09:53:34;;;;;;;26.48;16.40;;;;;;;7.84;100.00;100603.56;4919858;29;20197;-74
2022/12/21 09:56:05;;;;;;;27.33;18.40;;;;;;;7.97;100.00;100597.47;4906237;29;20634;-72
2022/12/21 09:58:38;;;;;;;25.83;17.55;;;;;;;7.88;100.00;100602.16;4932712;29;20224;-74
2022/12/21 10:01:20;;;;;;;24.17;15.57;;;;;;;7.91;100.00;100601.75;4923697;29;20213;-73
2022/12/21 10:04:16;;;;;;;23.73;15.65;;;;;;;7.95;100.00;100597.66;4925736;29;20224;-72
2022/12/21 10:07:24;;;;;;;23.80;15.90;;;;;;;7.84;100.00;100598.97;4901902;29;20201;-74
2022/12/21 10:10:04;;;;;;;26.08;15.10;;;;;;;7.96;100.00;100590.41;4921788;29;20532;-74
2022/12/21 10:12:42;;;;;;;33.40;16.27;;;;;;;7.90;100.00;100591.16;4921075;29;20268;-73
2022/12/21 10:15:23;;;;;;;22.38;15.82;;;;;;;7.88;100.00;100588.69;4925292;29;20193;-72
2022/12/21 10:18:04;;;;;;;29.33;17.00;;;;;;;7.85;100.00;100589.88;4923617;29;20275;-76
2022/12/21 10:20:46;;;;;;;27.63;17.52;;;;;;;7.86;100.00;100593.41;4924166;29;20201;-73
2022/12/21 10:23:22;;;;;;;27.27;17.15;;;;;;;8.06;100.00;100589.06;4922325;29;20271;-73
2022/12/21 10:25:56;;;;;;;26.95;17.50;;;;;;;7.99;100.00;100596.22;4915976;29;20606;-74
2022/12/21 10:28:37;;;;;;;29.73;16.98;;;;;;;7.98;100.00;100586.50;4922285;29;20213;-73
2022/12/21 10:31:09;;;;;;;24.88;15.50;;;;;;;8.00;100.00;100581.75;4920949;29;20257;-75
2022/12/21 10:33:43;;;;;;;31.40;17.63;;;;;;;7.92;100.00;100579.19;4921243;29;20193;-74
2022/12/21 10:36:16;;;;;;;29.38;16.10;;;;;;;7.90;100.00;100578.53;4920596;29;20253;-71
2022/12/21 10:38:51;;;;;;;23.23;14.98;;;;;;;7.95;100.00;100570.69;4923838;29;20219;-74
2022/12/21 10:41:24;;;;;;;25.80;15.35;;;;;;;8.07;100.00;100571.88;4921994;29;20241;-74
2022/12/21 10:43:55;;;;;;;25.15;16.13;;;;;;;8.01;100.00;100567.25;4921661;29;20193;-73
2022/12/21 10:46:30;;;;;;;23.55;16.05;;;;;;;8.18;100.00;100562.44;4924029;29;20674;-74
2022/12/21 10:49:13;;;;;;;27.08;18.38;;;;;;;8.34;100.00;100567.56;4920583;29;20193;-75
2022/12/21 10:51:44;;;;;;;29.30;16.88;;;;;;;8.34;100.00;100564.84;4929624;29;20760;-73
2022/12/21 10:54:14;;;;;;;33.80;18.90;;;;;;;8.43;100.00;100570.94;4916411;29;20674;-74
2022/12/21 10:56:48;;;;;;;32.15;17.77;;;;;;;8.33;100.00;100562.38;4926330;29;20621;-75
2022/12/21 10:59:23;;;;;;;26.88;16.98;;;;;;;8.45;100.00;100560.78;4921712;29;20565;-74
2022/12/21 11:01:53;;;;;;;24.77;16.15;;;;;;;8.37;100.00;100555.56;4917044;29;20256;-71
2022/12/21 11:04:32;;;;;;;25.77;15.70;;;;;;;8.33;100.00;100554.28;4914095;29;20210;-74
2022/12/21 11:07:05;;;;;;;26.33;17.58;;;;;;;8.36;100.00;100549.34;4916192;29;20248;-74
2022/12/21 11:09:57;;;;;;;24.50;16.08;;;;;;;8.39;100.00;100534.59;4917813;29;20220;-74
2022/12/21 11:12:52;;;;;;;24.02;16.58;;;;;;;8.57;100.00;100541.16;4920989;29;20215;-73
2022/12/21 11:15:24;;;;;;;29.33;16.20;;;;;;;8.58;100.00;100550.09;4915254;29;20200;-72
2022/12/21 11:18:36;;;;;;;26.65;16.77;;;;;;;8.59;100.00;100543.69;4914607;29;20189;-72
2022/12/21 11:21:21;;;;;;;27.30;15.23;;;;;;;8.54;100.00;100556.91;4915759;29;20221;-73
2022/12/21 11:23:58;;;;;;;26.83;16.95;;;;;;;8.64;100.00;100546.63;4915448;29;20193;-75
2022/12/21 11:26:30;;;;;;;32.50;19.33;;;;;;;8.61;100.00;100545.16;4923606;29;20202;-75
2022/12/21 11:29:06;;;;;;;23.55;16.08;;;;;;;8.62;100.00;100544.09;4919039;29;20564;-74
2022/12/21 11:31:37;;;;;;;24.48;16.15;;;;;;;8.71;100.00;100542.09;4916473;29;20232;-73
2022/12/21 11:34:36;;;;;;;28.23;16.27;;;;;;;8.52;100.00;100537.41;4915784;29;20257;-74
2022/12/21 11:37:21;;;;;;;27.30;17.80;;;;;;;8.67;100.00;100528.16;4915518;29;20272;-75
2022/12/21 11:39:50;;;;;;;30.92;14.35;;;;;;;8.63;100.00;100528.75;4917389;29;20279;-74
2022/12/21 11:42:22;;;;;;;24.70;15.60;;;;;;;8.58;100.00;100515.88;4915543;29;20240;-75
2022/12/21 11:45:04;;;;;;;24.52;14.93;;;;;;;8.64;100.00;100514.25;4916580;29;20438;-73
2022/12/21 11:47:48;;;;;;;23.80;14.40;;;;;;;8.59;100.00;100512.16;4917962;29;20230;-74
2022/12/21 11:50:33;;;;;;;26.97;15.90;;;;;;;8.81;100.00;100512.88;4924587;29;20480;-74
2022/12/21 11:53:45;;;;;;;26.60;16.77;;;;;;;8.78;100.00;100513.28;4917396;29;20783;-73
2022/12/21 11:56:23;;;;;;;21.35;14.25;;;;;;;8.69;100.00;100511.78;4915353;29;20273;-72
2022/12/21 11:59:17;;;;;;;27.25;14.82;;;;;;;8.81;100.00;100515.56;4913754;29;20197;-74
2022/12/21 12:02:00;;;;;;;20.05;15.60;;;;;;;8.69;100.00;100518.00;4911257;29;20648;-74
2022/12/21 12:04:44;;;;;;;19.27;15.50;;;;;;;8.87;100.00;100530.13;4915256;29;20200;-74